sensor_id;sensor_type;location;lat;lon;timestamp;temperature;humidity
37289;DHT22;23174;49.462;11.000;2023-12-20T00:00:45;10.20;99.90
37289;DHT22;23174;49.462;11.000;2023-12-20T00:02:46;10.20;99.90
37289;DHT22;23174;49.462;11.000;2023-12-20T00:04:47;10.20;99.90
37289;DHT22;23174;49.462;11.000;2023-12-20T00:06:47;10.20;99.90
37289;DHT22;23174;49.462;11.000;2023-12-20T00:08:48;10.20;99.90
37289;DHT22;23174;49.462;11.000;2023-12-20T00:10:48;10.20;99.90
37289;DHT22;23174;49.462;11.000;2023-12-20T00:12:49;10.10;99.90
37289;DHT22;23174;49.462;11.000;2023-12-20T00:14:49;10.20;99.90
37289;DHT22;23174;49.462;11.000;2023-12-20T00:16:50;10.20;99.90
37289;DHT22;23174;49.462;11.000;2023-12-20T00:18:50;10.20;99.90
37289;DHT22;23174;49.462;11.000;2023-12-20T00:20:51;10.20;99.90
37289;DHT22;23174;49.462;11.000;2023-12-20T00:22:51;10.20;99.90
37289;DHT22;23174;49.462;11.000;2023-12-20T00:24:52;10.20;99.90
37289;DHT22;23174;49.462;11.000;2023-12-20T00:26:55;10.10;99.90
37289;DHT22;23174;49.462;11.000;2023-12-20T00:28:55;10.10;99.90
37289;DHT22;23174;49.462;11.000;2023-12-20T00:30:56;10.10;99.90
37289;DHT22;23174;49.462;11.000;2023-12-20T00:32:56;10.10;99.90
37289;DHT22;23174;49.462;11.000;2023-12-20T00:34:57;10.10;99.90
37289;DHT22;23174;49.462;11.000;2023-12-20T00:36:57;10.10;99.90
37289;DHT22;23174;49.462;11.000;2023-12-20T00:38:58;10.00;99.90
37289;DHT22;23174;49.462;11.000;2023-12-20T00:40:58;10.00;99.90
37289;DHT22;23174;49.462;11.000;2023-12-20T00:42:59;10.00;99.90
37289;DHT22;23174;49.462;11.000;2023-12-20T00:44:59;10.00;99.90
37289;DHT22;23174;49.462;11.000;2023-12-20T00:47:00;10.10;99.90
37289;DHT22;23174;49.462;11.000;2023-12-20T00:49:01;10.10;99.90
37289;DHT22;23174;49.462;11.000;2023-12-20T00:51:02;10.10;99.90
37289;DHT22;23174;49.462;11.000;2023-12-20T00:53:03;10.10;99.90
37289;DHT22;23174;49.462;11.000;2023-12-20T00:55:04;10.10;99.90
37289;DHT22;23174;49.462;11.000;2023-12-20T00:57:05;10.10;99.90
37289;DHT22;23174;49.462;11.000;2023-12-20T00:59:05;10.10;99.90
37289;DHT22;23174;49.462;11.000;2023-12-20T01:01:06;10.10;99.90
37289;DHT22;23174;49.462;11.000;2023-12-20T01:03:06;10.10;99.90
37289;DHT22;23174;49.462;11.000;2023-12-20T01:05:07;10.10;99.90
37289;DHT22;23174;49.462;11.000;2023-12-20T01:07:09;10.10;99.90
37289;DHT22;23174;49.462;11.000;2023-12-20T01:09:09;10.10;99.90
37289;DHT22;23174;49.462;11.000;2023-12-20T01:11:10;10.10;99.90
37289;DHT22;23174;49.462;11.000;2023-12-20T01:13:10;10.00;99.90
37289;DHT22;23174;49.462;11.000;2023-12-20T01:15:11;10.10;99.90
37289;DHT22;23174;49.462;11.000;2023-12-20T01:17:12;10.10;99.90
37289;DHT22;23174;49.462;11.000;2023-12-20T01:19:13;10.20;99.90
37289;DHT22;23174;49.462;11.000;2023-12-20T01:21:13;10.20;99.90
37289;DHT22;23174;49.462;11.000;2023-12-20T01:23:14;10.20;99.90
37289;DHT22;23174;49.462;11.000;2023-12-20T01:25:14;10.20;99.90
37289;DHT22;23174;49.462;11.000;2023-12-20T01:27:15;10.10;99.90
37289;DHT22;23174;49.462;11.000;2023-12-20T01:29:15;10.10;99.90
37289;DHT22;23174;49.462;11.000;2023-12-20T01:31:16;10.20;99.90
37289;DHT22;23174;49.462;11.000;2023-12-20T01:33:16;10.20;99.90
37289;DHT22;23174;49.462;11.000;2023-12-20T01:35:17;10.20;99.90
37289;DHT22;23174;49.462;11.000;2023-12-20T01:37:18;10.10;99.90
37289;DHT22;23174;49.462;11.000;2023-12-20T01:39:18;10.10;99.90
37289;DHT22;23174;49.462;11.000;2023-12-20T01:41:18;10.10;99.90
37289;DHT22;23174;49.462;11.000;2023-12-20T01:43:19;10.10;99.90
37289;DHT22;23174;49.462;11.000;2023-12-20T01:45:19;10.10;99.90
37289;DHT22;23174;49.462;11.000;2023-12-20T01:47:20;10.20;99.90
37289;DHT22;23174;49.462;11.000;2023-12-20T01:49:21;10.20;99.90
37289;DHT22;23174;49.462;11.000;2023-12-20T01:51:22;10.20;99.90
37289;DHT22;23174;49.462;11.000;2023-12-20T01:53:25;10.10;99.90
37289;DHT22;23174;49.462;11.000;2023-12-20T01:55:30;10.10;99.90
37289;DHT22;23174;49.462;11.000;2023-12-20T01:57:31;10.00;99.90
37289;DHT22;23174;49.462;11.000;2023-12-20T01:59:32;10.10;99.90
37289;DHT22;23174;49.462;11.000;2023-12-20T02:01:33;10.00;99.90
37289;DHT22;23174;49.462;11.000;2023-12-20T02:03:35;10.00;99.90
37289;DHT22;23174;49.462;11.000;2023-12-20T02:05:37;10.10;99.90
37289;DHT22;23174;49.462;11.000;2023-12-20T02:07:38;10.10;99.90
37289;DHT22;23174;49.462;11.000;2023-12-20T02:09:39;10.10;99.90
37289;DHT22;23174;49.462;11.000;2023-12-20T02:11:40;10.00;99.90
37289;DHT22;23174;49.462;11.000;2023-12-20T02:13:41;10.00;99.90
37289;DHT22;23174;49.462;11.000;2023-12-20T02:15:41;10.00;99.90
37289;DHT22;23174;49.462;11.000;2023-12-20T02:17:44;10.00;99.90
37289;DHT22;23174;49.462;11.000;2023-12-20T02:19:45;10.00;99.90
37289;DHT22;23174;49.462;11.000;2023-12-20T02:21:45;9.90;99.90
37289;DHT22;23174;49.462;11.000;2023-12-20T02:23:46;10.00;99.90
37289;DHT22;23174;49.462;11.000;2023-12-20T02:25:47;9.90;99.90
37289;DHT22;23174;49.462;11.000;2023-12-20T02:27:48;10.00;99.90
37289;DHT22;23174;49.462;11.000;2023-12-20T02:29:50;9.90;99.90
37289;DHT22;23174;49.462;11.000;2023-12-20T02:31:50;9.90;99.90
37289;DHT22;23174;49.462;11.000;2023-12-20T02:33:51;9.90;99.90
37289;DHT22;23174;49.462;11.000;2023-12-20T02:35:51;9.70;99.90
37289;DHT22;23174;49.462;11.000;2023-12-20T02:37:53;9.70;99.90
37289;DHT22;23174;49.462;11.000;2023-12-20T02:39:53;9.70;99.90
37289;DHT22;23174;49.462;11.000;2023-12-20T02:41:53;9.80;99.90
37289;DHT22;23174;49.462;11.000;2023-12-20T02:43:54;9.80;99.90
37289;DHT22;23174;49.462;11.000;2023-12-20T02:45:54;9.70;99.90
37289;DHT22;23174;49.462;11.000;2023-12-20T02:47:55;9.70;99.90
37289;DHT22;23174;49.462;11.000;2023-12-20T02:49:56;9.70;99.90
37289;DHT22;23174;49.462;11.000;2023-12-20T02:51:56;9.70;99.90
37289;DHT22;23174;49.462;11.000;2023-12-20T02:53:56;9.70;99.90
37289;DHT22;23174;49.462;11.000;2023-12-20T02:55:57;9.70;99.90
37289;DHT22;23174;49.462;11.000;2023-12-20T02:57:58;9.70;99.90
37289;DHT22;23174;49.462;11.000;2023-12-20T02:59:58;9.60;99.90
37289;DHT22;23174;49.462;11.000;2023-12-20T03:01:59;9.70;99.90
37289;DHT22;23174;49.462;11.000;2023-12-20T03:03:59;9.60;99.90
37289;DHT22;23174;49.462;11.000;2023-12-20T03:06:00;9.50;99.90
37289;DHT22;23174;49.462;11.000;2023-12-20T03:08:00;9.50;99.90
37289;DHT22;23174;49.462;11.000;2023-12-20T03:10:01;9.50;99.90
37289;DHT22;23174;49.462;11.000;2023-12-20T03:12:01;9.60;99.90
37289;DHT22;23174;49.462;11.000;2023-12-20T03:14:02;9.60;99.90
37289;DHT22;23174;49.462;11.000;2023-12-20T03:16:12;9.50;99.90
37289;DHT22;23174;49.462;11.000;2023-12-20T03:18:13;9.50;99.90
37289;DHT22;23174;49.462;11.000;2023-12-20T03:20:14;9.40;99.90
37289;DHT22;23174;49.462;11.000;2023-12-20T03:22:14;9.40;99.90
37289;DHT22;23174;49.462;11.000;2023-12-20T03:24:14;9.50;99.90
37289;DHT22;23174;49.462;11.000;2023-12-20T03:26:15;9.50;99.90
37289;DHT22;23174;49.462;11.000;2023-12-20T03:28:15;9.50;99.90
37289;DHT22;23174;49.462;11.000;2023-12-20T03:30:16;9.40;99.90
37289;DHT22;23174;49.462;11.000;2023-12-20T03:32:16;9.30;99.90
37289;DHT22;23174;49.462;11.000;2023-12-20T03:34:17;9.30;99.90
37289;DHT22;23174;49.462;11.000;2023-12-20T03:36:17;9.40;99.90
37289;DHT22;23174;49.462;11.000;2023-12-20T03:38:18;9.30;99.90
37289;DHT22;23174;49.462;11.000;2023-12-20T03:40:18;9.40;99.90
37289;DHT22;23174;49.462;11.000;2023-12-20T03:42:19;9.40;99.90
37289;DHT22;23174;49.462;11.000;2023-12-20T03:44:19;9.40;99.90
37289;DHT22;23174;49.462;11.000;2023-12-20T03:46:20;9.40;99.90
37289;DHT22;23174;49.462;11.000;2023-12-20T03:48:21;9.40;99.90
37289;DHT22;23174;49.462;11.000;2023-12-20T03:50:24;9.30;99.90
37289;DHT22;23174;49.462;11.000;2023-12-20T03:52:25;9.30;99.90
37289;DHT22;23174;49.462;11.000;2023-12-20T03:54:25;9.30;99.90
37289;DHT22;23174;49.462;11.000;2023-12-20T03:56:26;9.40;99.90
37289;DHT22;23174;49.462;11.000;2023-12-20T03:58:26;9.30;99.90
37289;DHT22;23174;49.462;11.000;2023-12-20T04:00:27;9.40;99.90
37289;DHT22;23174;49.462;11.000;2023-12-20T04:02:27;9.40;99.90
37289;DHT22;23174;49.462;11.000;2023-12-20T04:04:28;9.50;99.90
37289;DHT22;23174;49.462;11.000;2023-12-20T04:06:28;9.40;99.90
37289;DHT22;23174;49.462;11.000;2023-12-20T04:08:29;9.30;99.90
37289;DHT22;23174;49.462;11.000;2023-12-20T04:10:29;9.30;99.90
37289;DHT22;23174;49.462;11.000;2023-12-20T04:12:30;9.30;99.90
37289;DHT22;23174;49.462;11.000;2023-12-20T04:14:31;9.40;99.90
37289;DHT22;23174;49.462;11.000;2023-12-20T04:16:31;9.40;99.90
37289;DHT22;23174;49.462;11.000;2023-12-20T04:18:32;9.30;99.90
37289;DHT22;23174;49.462;11.000;2023-12-20T04:20:32;9.40;99.90
37289;DHT22;23174;49.462;11.000;2023-12-20T04:22:33;9.40;99.90
37289;DHT22;23174;49.462;11.000;2023-12-20T04:24:33;9.40;99.90
37289;DHT22;23174;49.462;11.000;2023-12-20T04:26:33;9.30;99.90
37289;DHT22;23174;49.462;11.000;2023-12-20T04:28:34;9.40;99.90
37289;DHT22;23174;49.462;11.000;2023-12-20T04:30:34;9.30;99.90
37289;DHT22;23174;49.462;11.000;2023-12-20T04:32:35;9.30;99.90
37289;DHT22;23174;49.462;11.000;2023-12-20T04:34:36;9.40;99.90
37289;DHT22;23174;49.462;11.000;2023-12-20T04:36:37;9.30;99.90
37289;DHT22;23174;49.462;11.000;2023-12-20T04:38:37;9.30;99.90
37289;DHT22;23174;49.462;11.000;2023-12-20T04:40:37;9.20;99.90
37289;DHT22;23174;49.462;11.000;2023-12-20T04:42:39;9.30;99.90
37289;DHT22;23174;49.462;11.000;2023-12-20T04:44:39;9.30;99.90
37289;DHT22;23174;49.462;11.000;2023-12-20T04:46:40;9.40;99.90
37289;DHT22;23174;49.462;11.000;2023-12-20T04:48:40;9.30;99.90
37289;DHT22;23174;49.462;11.000;2023-12-20T04:50:41;9.30;99.90
37289;DHT22;23174;49.462;11.000;2023-12-20T04:52:42;9.30;99.90
37289;DHT22;23174;49.462;11.000;2023-12-20T04:54:43;9.30;99.90
37289;DHT22;23174;49.462;11.000;2023-12-20T04:56:43;9.20;99.90
37289;DHT22;23174;49.462;11.000;2023-12-20T04:58:43;9.30;99.90
37289;DHT22;23174;49.462;11.000;2023-12-20T05:00:44;9.30;99.90
37289;DHT22;23174;49.462;11.000;2023-12-20T05:02:44;9.30;99.90
37289;DHT22;23174;49.462;11.000;2023-12-20T05:04:45;9.30;99.90
37289;DHT22;23174;49.462;11.000;2023-12-20T05:06:46;9.30;99.90
37289;DHT22;23174;49.462;11.000;2023-12-20T05:08:46;9.20;99.90
37289;DHT22;23174;49.462;11.000;2023-12-20T05:10:47;9.20;99.90
37289;DHT22;23174;49.462;11.000;2023-12-20T05:12:48;9.20;99.90
37289;DHT22;23174;49.462;11.000;2023-12-20T05:14:48;9.10;99.90
37289;DHT22;23174;49.462;11.000;2023-12-20T05:16:48;9.20;99.90
37289;DHT22;23174;49.462;11.000;2023-12-20T05:18:50;9.30;99.90
37289;DHT22;23174;49.462;11.000;2023-12-20T05:20:52;9.30;99.90
37289;DHT22;23174;49.462;11.000;2023-12-20T05:22:53;9.30;99.90
37289;DHT22;23174;49.462;11.000;2023-12-20T05:24:53;9.20;99.90
37289;DHT22;23174;49.462;11.000;2023-12-20T05:26:54;9.20;99.90
37289;DHT22;23174;49.462;11.000;2023-12-20T05:28:54;9.30;99.90
37289;DHT22;23174;49.462;11.000;2023-12-20T05:30:55;9.20;99.90
37289;DHT22;23174;49.462;11.000;2023-12-20T05:32:55;9.20;99.90
37289;DHT22;23174;49.462;11.000;2023-12-20T05:34:56;9.20;99.90
37289;DHT22;23174;49.462;11.000;2023-12-20T05:36:57;9.10;99.90
37289;DHT22;23174;49.462;11.000;2023-12-20T05:38:58;9.20;99.90
37289;DHT22;23174;49.462;11.000;2023-12-20T05:40:58;9.30;99.90
37289;DHT22;23174;49.462;11.000;2023-12-20T05:42:59;9.30;99.90
37289;DHT22;23174;49.462;11.000;2023-12-20T05:44:59;9.20;99.90
37289;DHT22;23174;49.462;11.000;2023-12-20T05:47:00;9.20;99.90
37289;DHT22;23174;49.462;11.000;2023-12-20T05:49:00;9.10;99.90
37289;DHT22;23174;49.462;11.000;2023-12-20T05:51:01;9.10;99.90
37289;DHT22;23174;49.462;11.000;2023-12-20T05:53:01;9.10;99.90
37289;DHT22;23174;49.462;11.000;2023-12-20T05:55:02;9.10;99.90
37289;DHT22;23174;49.462;11.000;2023-12-20T05:57:02;9.10;99.90
37289;DHT22;23174;49.462;11.000;2023-12-20T05:59:03;9.20;99.90
37289;DHT22;23174;49.462;11.000;2023-12-20T06:01:04;9.10;99.90
37289;DHT22;23174;49.462;11.000;2023-12-20T06:03:05;9.10;99.90
37289;DHT22;23174;49.462;11.000;2023-12-20T06:05:06;9.10;99.90
37289;DHT22;23174;49.462;11.000;2023-12-20T06:07:06;9.00;99.90
37289;DHT22;23174;49.462;11.000;2023-12-20T06:09:07;9.10;99.90
37289;DHT22;23174;49.462;11.000;2023-12-20T06:11:07;9.00;99.90
37289;DHT22;23174;49.462;11.000;2023-12-20T06:13:08;9.00;99.90
37289;DHT22;23174;49.462;11.000;2023-12-20T06:15:09;9.10;99.90
37289;DHT22;23174;49.462;11.000;2023-12-20T06:17:09;9.10;99.90
37289;DHT22;23174;49.462;11.000;2023-12-20T06:19:10;9.10;99.90
37289;DHT22;23174;49.462;11.000;2023-12-20T06:21:10;9.10;99.90
37289;DHT22;23174;49.462;11.000;2023-12-20T06:23:13;9.10;99.90
37289;DHT22;23174;49.462;11.000;2023-12-20T06:25:13;9.10;99.90
37289;DHT22;23174;49.462;11.000;2023-12-20T06:27:14;9.00;99.90
37289;DHT22;23174;49.462;11.000;2023-12-20T06:29:15;9.10;99.90
37289;DHT22;23174;49.462;11.000;2023-12-20T06:31:15;9.10;99.90
37289;DHT22;23174;49.462;11.000;2023-12-20T06:33:16;9.00;99.90
37289;DHT22;23174;49.462;11.000;2023-12-20T06:35:16;9.10;99.90
37289;DHT22;23174;49.462;11.000;2023-12-20T06:37:17;9.00;99.90
37289;DHT22;23174;49.462;11.000;2023-12-20T06:39:17;9.00;99.90
37289;DHT22;23174;49.462;11.000;2023-12-20T06:41:18;9.00;99.90
37289;DHT22;23174;49.462;11.000;2023-12-20T06:43:18;9.10;99.90
37289;DHT22;23174;49.462;11.000;2023-12-20T06:45:19;9.10;99.90
37289;DHT22;23174;49.462;11.000;2023-12-20T06:47:19;9.10;99.90
37289;DHT22;23174;49.462;11.000;2023-12-20T06:49:20;9.20;99.90
37289;DHT22;23174;49.462;11.000;2023-12-20T06:51:20;9.10;99.90
37289;DHT22;23174;49.462;11.000;2023-12-20T06:53:21;9.20;99.90
37289;DHT22;23174;49.462;11.000;2023-12-20T06:55:22;9.20;99.90
37289;DHT22;23174;49.462;11.000;2023-12-20T06:57:23;9.20;99.90
37289;DHT22;23174;49.462;11.000;2023-12-20T06:59:23;9.00;99.90
37289;DHT22;23174;49.462;11.000;2023-12-20T07:01:24;9.10;99.90
37289;DHT22;23174;49.462;11.000;2023-12-20T07:03:24;9.10;99.90
37289;DHT22;23174;49.462;11.000;2023-12-20T07:05:25;9.10;99.90
37289;DHT22;23174;49.462;11.000;2023-12-20T07:07:25;9.20;99.90
37289;DHT22;23174;49.462;11.000;2023-12-20T07:09:26;9.20;99.90
37289;DHT22;23174;49.462;11.000;2023-12-20T07:11:27;9.20;99.90
37289;DHT22;23174;49.462;11.000;2023-12-20T07:13:27;9.20;99.90
37289;DHT22;23174;49.462;11.000;2023-12-20T07:15:28;9.20;99.90
37289;DHT22;23174;49.462;11.000;2023-12-20T07:17:29;9.30;99.90
37289;DHT22;23174;49.462;11.000;2023-12-20T07:19:30;9.40;99.90
37289;DHT22;23174;49.462;11.000;2023-12-20T07:21:30;9.50;99.90
37289;DHT22;23174;49.462;11.000;2023-12-20T07:23:31;9.40;99.90
37289;DHT22;23174;49.462;11.000;2023-12-20T07:25:32;9.40;99.90
37289;DHT22;23174;49.462;11.000;2023-12-20T07:27:32;9.40;99.90
37289;DHT22;23174;49.462;11.000;2023-12-20T07:29:33;9.50;99.90
37289;DHT22;23174;49.462;11.000;2023-12-20T07:31:33;9.50;99.90
37289;DHT22;23174;49.462;11.000;2023-12-20T07:33:35;9.40;99.90
37289;DHT22;23174;49.462;11.000;2023-12-20T07:35:35;9.50;99.90
37289;DHT22;23174;49.462;11.000;2023-12-20T07:37:36;9.50;99.90
37289;DHT22;23174;49.462;11.000;2023-12-20T07:39:37;9.50;99.90
37289;DHT22;23174;49.462;11.000;2023-12-20T07:41:37;9.40;99.90
37289;DHT22;23174;49.462;11.000;2023-12-20T07:43:38;9.50;99.90
37289;DHT22;23174;49.462;11.000;2023-12-20T07:45:38;9.50;99.90
37289;DHT22;23174;49.462;11.000;2023-12-20T07:47:39;9.50;99.90
37289;DHT22;23174;49.462;11.000;2023-12-20T07:49:41;9.50;99.90
37289;DHT22;23174;49.462;11.000;2023-12-20T07:51:41;9.50;99.90
37289;DHT22;23174;49.462;11.000;2023-12-20T07:53:42;9.50;99.90
37289;DHT22;23174;49.462;11.000;2023-12-20T07:55:42;9.50;99.90
37289;DHT22;23174;49.462;11.000;2023-12-20T07:57:43;9.50;99.90
37289;DHT22;23174;49.462;11.000;2023-12-20T07:59:43;9.60;99.90
37289;DHT22;23174;49.462;11.000;2023-12-20T08:01:44;9.60;99.90
37289;DHT22;23174;49.462;11.000;2023-12-20T08:03:45;9.60;99.90
37289;DHT22;23174;49.462;11.000;2023-12-20T08:05:46;9.60;99.90
37289;DHT22;23174;49.462;11.000;2023-12-20T08:07:47;9.60;99.90
37289;DHT22;23174;49.462;11.000;2023-12-20T08:09:47;9.60;99.90
37289;DHT22;23174;49.462;11.000;2023-12-20T08:11:48;9.60;99.90
37289;DHT22;23174;49.462;11.000;2023-12-20T08:13:49;9.60;99.90
37289;DHT22;23174;49.462;11.000;2023-12-20T08:15:49;9.60;99.90
37289;DHT22;23174;49.462;11.000;2023-12-20T08:17:50;9.60;99.90
37289;DHT22;23174;49.462;11.000;2023-12-20T08:19:51;9.60;99.90
37289;DHT22;23174;49.462;11.000;2023-12-20T08:21:51;9.60;99.90
37289;DHT22;23174;49.462;11.000;2023-12-20T08:23:52;9.70;99.90
37289;DHT22;23174;49.462;11.000;2023-12-20T08:25:52;9.60;99.90
37289;DHT22;23174;49.462;11.000;2023-12-20T08:27:53;9.70;99.90
37289;DHT22;23174;49.462;11.000;2023-12-20T08:29:53;9.70;99.90
37289;DHT22;23174;49.462;11.000;2023-12-20T08:31:55;9.70;99.90
37289;DHT22;23174;49.462;11.000;2023-12-20T08:33:56;9.70;99.90
37289;DHT22;23174;49.462;11.000;2023-12-20T08:35:57;9.70;99.90
37289;DHT22;23174;49.462;11.000;2023-12-20T08:37:58;9.70;99.90
37289;DHT22;23174;49.462;11.000;2023-12-20T08:39:58;9.70;99.90
37289;DHT22;23174;49.462;11.000;2023-12-20T08:41:59;9.80;99.90
37289;DHT22;23174;49.462;11.000;2023-12-20T08:43:59;9.70;99.90
37289;DHT22;23174;49.462;11.000;2023-12-20T08:46:00;9.70;99.90
37289;DHT22;23174;49.462;11.000;2023-12-20T08:48:00;9.70;99.90
37289;DHT22;23174;49.462;11.000;2023-12-20T08:50:02;9.60;99.90
37289;DHT22;23174;49.462;11.000;2023-12-20T08:52:03;9.70;99.90
37289;DHT22;23174;49.462;11.000;2023-12-20T08:54:03;9.70;99.90
37289;DHT22;23174;49.462;11.000;2023-12-20T08:56:08;9.80;99.90
37289;DHT22;23174;49.462;11.000;2023-12-20T08:58:08;9.80;99.90
37289;DHT22;23174;49.462;11.000;2023-12-20T09:00:09;9.80;99.90
37289;DHT22;23174;49.462;11.000;2023-12-20T09:02:10;9.80;99.90
37289;DHT22;23174;49.462;11.000;2023-12-20T09:04:10;9.60;99.90
37289;DHT22;23174;49.462;11.000;2023-12-20T09:06:11;9.70;99.90
37289;DHT22;23174;49.462;11.000;2023-12-20T09:08:11;9.60;99.90
37289;DHT22;23174;49.462;11.000;2023-12-20T09:10:12;9.70;99.90
37289;DHT22;23174;49.462;11.000;2023-12-20T09:12:12;9.70;99.90
37289;DHT22;23174;49.462;11.000;2023-12-20T09:14:13;9.70;99.90
37289;DHT22;23174;49.462;11.000;2023-12-20T09:16:13;9.60;99.90
37289;DHT22;23174;49.462;11.000;2023-12-20T09:18:16;9.70;99.90
37289;DHT22;23174;49.462;11.000;2023-12-20T09:20:16;9.60;99.90
37289;DHT22;23174;49.462;11.000;2023-12-20T09:22:17;9.70;99.90
37289;DHT22;23174;49.462;11.000;2023-12-20T09:24:17;9.70;99.90
37289;DHT22;23174;49.462;11.000;2023-12-20T09:26:18;9.70;99.90
37289;DHT22;23174;49.462;11.000;2023-12-20T09:28:19;9.70;99.90
37289;DHT22;23174;49.462;11.000;2023-12-20T09:30:19;9.60;99.90
37289;DHT22;23174;49.462;11.000;2023-12-20T09:32:20;9.60;99.90
37289;DHT22;23174;49.462;11.000;2023-12-20T09:34:21;9.70;99.90
37289;DHT22;23174;49.462;11.000;2023-12-20T09:36:22;9.70;99.90
37289;DHT22;23174;49.462;11.000;2023-12-20T09:38:22;9.70;99.90
37289;DHT22;23174;49.462;11.000;2023-12-20T09:40:26;9.70;99.90
37289;DHT22;23174;49.462;11.000;2023-12-20T09:42:47;9.80;99.90
37289;DHT22;23174;49.462;11.000;2023-12-20T09:44:49;9.80;99.90
37289;DHT22;23174;49.462;11.000;2023-12-20T09:46:50;9.80;99.90
37289;DHT22;23174;49.462;11.000;2023-12-20T09:48:54;9.80;99.90
37289;DHT22;23174;49.462;11.000;2023-12-20T09:50:55;9.90;99.90
37289;DHT22;23174;49.462;11.000;2023-12-20T09:52:57;9.90;99.90
37289;DHT22;23174;49.462;11.000;2023-12-20T09:55:01;10.00;99.90
37289;DHT22;23174;49.462;11.000;2023-12-20T09:57:06;9.90;99.90
37289;DHT22;23174;49.462;11.000;2023-12-20T09:59:06;10.00;99.90
37289;DHT22;23174;49.462;11.000;2023-12-20T10:01:08;10.00;99.90
37289;DHT22;23174;49.462;11.000;2023-12-20T10:03:08;10.10;99.90
37289;DHT22;23174;49.462;11.000;2023-12-20T10:05:16;10.10;99.90
37289;DHT22;23174;49.462;11.000;2023-12-20T10:07:19;10.10;99.90
37289;DHT22;23174;49.462;11.000;2023-12-20T10:09:19;10.20;99.90
37289;DHT22;23174;49.462;11.000;2023-12-20T10:11:20;10.20;99.90
37289;DHT22;23174;49.462;11.000;2023-12-20T10:13:20;10.30;99.90
37289;DHT22;23174;49.462;11.000;2023-12-20T10:15:21;10.30;99.90
37289;DHT22;23174;49.462;11.000;2023-12-20T10:17:21;10.30;99.90
37289;DHT22;23174;49.462;11.000;2023-12-20T10:19:22;10.30;99.90
37289;DHT22;23174;49.462;11.000;2023-12-20T10:21:23;10.30;99.90
37289;DHT22;23174;49.462;11.000;2023-12-20T10:23:25;10.30;99.90
37289;DHT22;23174;49.462;11.000;2023-12-20T10:25:26;10.30;99.90
37289;DHT22;23174;49.462;11.000;2023-12-20T10:27:27;10.20;99.90
37289;DHT22;23174;49.462;11.000;2023-12-20T10:29:27;10.20;99.90
37289;DHT22;23174;49.462;11.000;2023-12-20T10:31:29;10.20;99.90
37289;DHT22;23174;49.462;11.000;2023-12-20T10:33:31;10.30;99.90
37289;DHT22;23174;49.462;11.000;2023-12-20T10:35:35;10.20;99.90
37289;DHT22;23174;49.462;11.000;2023-12-20T10:37:37;10.20;99.90
37289;DHT22;23174;49.462;11.000;2023-12-20T10:39:38;10.20;99.90
37289;DHT22;23174;49.462;11.000;2023-12-20T10:41:40;10.30;99.90
37289;DHT22;23174;49.462;11.000;2023-12-20T10:43:41;10.30;99.90
37289;DHT22;23174;49.462;11.000;2023-12-20T10:45:42;10.30;99.90
37289;DHT22;23174;49.462;11.000;2023-12-20T10:47:49;10.20;99.90
37289;DHT22;23174;49.462;11.000;2023-12-20T10:49:52;10.20;99.90
37289;DHT22;23174;49.462;11.000;2023-12-20T10:51:54;10.20;99.90
37289;DHT22;23174;49.462;11.000;2023-12-20T10:53:55;10.20;99.90
37289;DHT22;23174;49.462;11.000;2023-12-20T10:55:56;10.20;99.90
37289;DHT22;23174;49.462;11.000;2023-12-20T10:58:01;10.20;99.90
37289;DHT22;23174;49.462;11.000;2023-12-20T11:00:02;10.20;99.90
37289;DHT22;23174;49.462;11.000;2023-12-20T11:02:06;10.20;99.90
37289;DHT22;23174;49.462;11.000;2023-12-20T11:04:09;10.30;99.90
37289;DHT22;23174;49.462;11.000;2023-12-20T11:11:00;10.20;99.90
37289;DHT22;23174;49.462;11.000;2023-12-20T11:13:20;10.20;99.90
37289;DHT22;23174;49.462;11.000;2023-12-20T11:15:21;10.10;99.90
37289;DHT22;23174;49.462;11.000;2023-12-20T11:17:22;10.10;99.90
37289;DHT22;23174;49.462;11.000;2023-12-20T11:19:22;10.10;99.90
37289;DHT22;23174;49.462;11.000;2023-12-20T11:21:23;10.10;99.90
37289;DHT22;23174;49.462;11.000;2023-12-20T11:23:23;10.10;99.90
37289;DHT22;23174;49.462;11.000;2023-12-20T11:25:24;10.20;99.90
37289;DHT22;23174;49.462;11.000;2023-12-20T11:27:25;10.20;99.90
37289;DHT22;23174;49.462;11.000;2023-12-20T11:29:35;10.30;99.90
37289;DHT22;23174;49.462;11.000;2023-12-20T11:31:40;10.20;99.90
37289;DHT22;23174;49.462;11.000;2023-12-20T11:33:41;10.20;99.90
37289;DHT22;23174;49.462;11.000;2023-12-20T11:35:45;10.20;99.90
37289;DHT22;23174;49.462;11.000;2023-12-20T11:37:46;10.10;99.90
37289;DHT22;23174;49.462;11.000;2023-12-20T11:39:56;10.20;99.90
37289;DHT22;23174;49.462;11.000;2023-12-20T11:41:57;10.30;99.90
37289;DHT22;23174;49.462;11.000;2023-12-20T11:43:57;10.20;99.90
37289;DHT22;23174;49.462;11.000;2023-12-20T11:46:05;10.10;99.90
37289;DHT22;23174;49.462;11.000;2023-12-20T11:48:06;10.20;99.90
37289;DHT22;23174;49.462;11.000;2023-12-20T11:50:07;10.20;99.90
37289;DHT22;23174;49.462;11.000;2023-12-20T11:52:08;10.20;99.90
37289;DHT22;23174;49.462;11.000;2023-12-20T11:54:09;10.20;99.90
37289;DHT22;23174;49.462;11.000;2023-12-20T11:56:11;10.20;99.90
37289;DHT22;23174;49.462;11.000;2023-12-20T11:58:12;10.30;99.90
37289;DHT22;23174;49.462;11.000;2023-12-20T12:00:13;10.20;99.90
37289;DHT22;23174;49.462;11.000;2023-12-20T12:02:14;10.30;99.90
37289;DHT22;23174;49.462;11.000;2023-12-20T12:04:15;10.20;99.90
37289;DHT22;23174;49.462;11.000;2023-12-20T12:06:17;10.20;99.90
37289;DHT22;23174;49.462;11.000;2023-12-20T12:08:18;10.20;99.90
37289;DHT22;23174;49.462;11.000;2023-12-20T12:10:19;10.10;99.90
37289;DHT22;23174;49.462;11.000;2023-12-20T12:12:22;10.00;99.90
37289;DHT22;23174;49.462;11.000;2023-12-20T12:14:24;8.90;99.90
37289;DHT22;23174;49.462;11.000;2023-12-20T12:16:25;8.50;99.90
37289;DHT22;23174;49.462;11.000;2023-12-20T12:18:26;8.50;99.90
37289;DHT22;23174;49.462;11.000;2023-12-20T12:20:26;8.40;99.90
37289;DHT22;23174;49.462;11.000;2023-12-20T12:22:27;8.40;99.90
37289;DHT22;23174;49.462;11.000;2023-12-20T12:24:28;8.50;99.90
37289;DHT22;23174;49.462;11.000;2023-12-20T12:26:30;8.40;99.90
37289;DHT22;23174;49.462;11.000;2023-12-20T12:28:31;8.40;99.90
37289;DHT22;23174;49.462;11.000;2023-12-20T12:30:33;8.40;99.90
37289;DHT22;23174;49.462;11.000;2023-12-20T12:32:33;8.40;99.90
37289;DHT22;23174;49.462;11.000;2023-12-20T12:34:37;8.50;99.90
37289;DHT22;23174;49.462;11.000;2023-12-20T12:36:38;8.40;99.90
37289;DHT22;23174;49.462;11.000;2023-12-20T12:38:41;8.80;99.90
37289;DHT22;23174;49.462;11.000;2023-12-20T12:40:43;9.10;99.90
37289;DHT22;23174;49.462;11.000;2023-12-20T12:42:45;9.20;99.90
37289;DHT22;23174;49.462;11.000;2023-12-20T12:44:45;9.70;99.90